Time;durP1;ratioP1;P1;durP2;ratioP2;P2;SDS_P1;SDS_P2;PMS_P1;PMS_P2;Temp;Humidity;BMP_temperature;BMP_pressure;BME280_temperature;BME280_humidity;BME280_pressure;Samples;Min_cycle;Max_cycle;Signal;HPM_P1;HPM_P2
2023/01/12 00:01:21;;;;;;;15.35;4.60;;;;;;;;;;5020934;28;20083;-73
2023/01/12 00:03:47;;;;;;;14.57;3.58;;;;;;;;;;5030692;28;20076;-73
2023/01/12 00:06:13;;;;;;;18.15;3.88;;;;;;;;;;5018930;28;20764;-73
2023/01/12 00:08:39;;;;;;;19.08;4.15;;;;;;;;;;5015990;28;20057;-74
2023/01/12 00:11:06;;;;;;;15.18;3.92;;;;;;;;;;5021420;28;20073;-73
2023/01/12 00:13:32;;;;;;;17.08;4.25;;;;;;;;;;5015900;28;20084;-73
2023/01/12 00:18:44;;;;;;;16.67;4.30;;;;;;;;;;5028586;28;20440;-73
2023/01/12 00:21:10;;;;;;;13.98;3.85;;;;;;;;;;5011956;28;20065;-73
2023/01/12 00:23:36;;;;;;;21.42;4.72;;;;;;;;;;5028209;28;20042;-73
2023/01/12 00:26:02;;;;;;;15.55;4.07;;;;;;;;;;5056185;28;20053;-73
2023/01/12 00:28:28;;;;;;;20.60;5.43;;;;;;;;;;5028331;28;20052;-73
2023/01/12 00:31:06;;;;;;;21.02;5.10;;;;;;;;;;5026563;28;20037;-73
2023/01/12 00:33:33;;;;;;;21.20;5.03;;;;;;;;;;5028398;28;20049;-73
2023/01/12 00:36:07;;;;;;;15.13;3.72;;;;;;;;;;5030802;28;20041;-73
2023/01/12 00:38:37;;;;;;;19.08;4.72;;;;;;;;;;5020876;28;20073;-74
2023/01/12 00:41:10;;;;;;;21.67;5.38;;;;;;;;;;5024192;28;20044;-73
2023/01/12 00:46:30;;;;;;;15.18;4.65;;;;;;;;;;5022569;28;20073;-73
2023/01/12 00:48:56;;;;;;;28.48;5.45;;;;;;;;;;5027065;28;20049;-73
2023/01/12 00:51:22;;;;;;;23.92;5.80;;;;;;;;;;5020221;28;20046;-73
2023/01/12 00:53:48;;;;;;;22.27;5.55;;;;;;;;;;5024861;28;20041;-74
2023/01/12 00:56:14;;;;;;;22.27;5.18;;;;;;;;;;5022621;28;20425;-73
2023/01/12 00:58:40;;;;;;;19.73;5.32;;;;;;;;;;5043345;28;20180;-74
2023/01/12 01:01:07;;;;;;;23.95;5.38;;;;;;;;;;5019618;28;20124;-73
2023/01/12 01:03:33;;;;;;;17.33;5.53;;;;;;;;;;5018982;28;20075;-73
2023/01/12 01:06:06;;;;;;;20.48;4.75;;;;;;;;;;5021506;28;20037;-73
2023/01/12 01:08:35;;;;;;;22.40;5.60;;;;;;;;;;5020962;28;20095;-73
2023/01/12 01:11:05;;;;;;;14.80;4.80;;;;;;;;;;5026730;28;20037;-73
2023/01/12 01:13:31;;;;;;;22.05;5.50;;;;;;;;;;5022467;28;20049;-73
2023/01/12 01:16:01;;;;;;;19.65;4.75;;;;;;;;;;5027952;28;20073;-73
2023/01/12 01:18:27;;;;;;;21.35;4.53;;;;;;;;;;5024512;28;20551;-74
2023/01/12 01:20:53;;;;;;;21.52;4.63;;;;;;;;;;5033090;28;20095;-73
2023/01/12 01:23:20;;;;;;;30.75;5.97;;;;;;;;;;5029974;28;20077;-73
2023/01/12 01:25:46;;;;;;;18.60;5.05;;;;;;;;;;5034217;28;20057;-73
2023/01/12 01:28:12;;;;;;;22.15;5.38;;;;;;;;;;5033471;28;20041;-73
2023/01/12 01:30:38;;;;;;;23.02;5.15;;;;;;;;;;5022283;28;20096;-73
2023/01/12 01:33:04;;;;;;;27.58;6.03;;;;;;;;;;5031237;28;20053;-73
2023/01/12 01:35:30;;;;;;;25.17;5.93;;;;;;;;;;5034957;28;20049;-73
2023/01/12 01:37:56;;;;;;;26.98;5.90;;;;;;;;;;5027408;28;20040;-73
2023/01/12 01:40:22;;;;;;;16.35;5.32;;;;;;;;;;5027814;28;20060;-73
2023/01/12 01:42:48;;;;;;;29.85;6.78;;;;;;;;;;5025421;28;20099;-73
2023/01/12 01:45:15;;;;;;;23.80;6.07;;;;;;;;;;5023767;28;20037;-73
2023/01/12 01:47:50;;;;;;;25.63;5.70;;;;;;;;;;5049966;28;20052;-73
2023/01/12 01:50:25;;;;;;;19.95;5.50;;;;;;;;;;5018568;28;20076;-72
2023/01/12 01:52:55;;;;;;;18.90;5.70;;;;;;;;;;5021454;28;20041;-73
2023/01/12 01:55:21;;;;;;;24.05;5.18;;;;;;;;;;5026988;28;20568;-73
2023/01/12 01:57:50;;;;;;;29.15;6.15;;;;;;;;;;5026576;28;20120;-73
2023/01/12 02:00:16;;;;;;;27.08;5.70;;;;;;;;;;5023591;28;20041;-73
2023/01/12 02:02:43;;;;;;;26.70;5.93;;;;;;;;;;5022518;28;20045;-73
2023/01/12 02:05:11;;;;;;;33.05;5.70;;;;;;;;;;5021635;28;20500;-73
2023/01/12 02:07:37;;;;;;;24.80;5.63;;;;;;;;;;5028144;28;20089;-73
2023/01/12 02:10:04;;;;;;;21.08;5.53;;;;;;;;;;5022138;28;20073;-73
2023/01/12 02:18:14;;;;;;;20.88;6.00;;;;;;;;;;5023952;28;20042;-73
2023/01/12 02:20:45;;;;;;;24.05;5.97;;;;;;;;;;5023191;28;20046;-73
2023/01/12 02:23:14;;;;;;;22.70;6.55;;;;;;;;;;5018118;28;20124;-73
2023/01/12 02:25:43;;;;;;;22.80;6.75;;;;;;;;;;5020400;28;20088;-73
2023/01/12 02:28:15;;;;;;;28.05;5.88;;;;;;;;;;5023415;28;20041;-73
2023/01/12 02:30:48;;;;;;;23.63;5.50;;;;;;;;;;5030607;28;20529;-73
2023/01/12 02:33:14;;;;;;;29.80;6.70;;;;;;;;;;5031808;28;20037;-73
2023/01/12 02:35:45;;;;;;;27.05;5.70;;;;;;;;;;5029902;28;20409;-73
2023/01/12 02:38:25;;;;;;;23.83;7.05;;;;;;;;;;5015053;28;20961;-73
2023/01/12 02:41:14;;;;;;;26.92;6.32;;;;;;;;;;5030127;28;20091;-73
2023/01/12 02:43:41;;;;;;;25.13;5.50;;;;;;;;;;5015878;28;20053;-73
2023/01/12 02:46:13;;;;;;;30.42;6.65;;;;;;;;;;5017983;28;20500;-73
2023/01/12 02:48:43;;;;;;;25.80;5.90;;;;;;;;;;5025627;28;20072;-73
2023/01/12 02:51:13;;;;;;;24.70;6.45;;;;;;;;;;5024171;28;20048;-73
2023/01/12 02:53:43;;;;;;;23.85;5.22;;;;;;;;;;5030160;28;20048;-73
2023/01/12 02:56:10;;;;;;;22.98;5.20;;;;;;;;;;5018336;28;20095;-74
2023/01/12 02:58:38;;;;;;;24.75;5.60;;;;;;;;;;5019961;28;20052;-73
2023/01/12 03:01:05;;;;;;;28.85;6.75;;;;;;;;;;5020003;28;20050;-73
2023/01/12 03:03:31;;;;;;;15.10;4.97;;;;;;;;;;5026502;28;20049;-73
2023/01/12 03:06:00;;;;;;;22.88;5.70;;;;;;;;;;5024351;28;20124;-73
2023/01/12 03:08:28;;;;;;;23.80;7.07;;;;;;;;;;5021701;28;20472;-73
2023/01/12 03:10:57;;;;;;;29.30;6.30;;;;;;;;;;5021191;28;20056;-73
2023/01/12 03:13:23;;;;;;;26.00;5.65;;;;;;;;;;5024035;28;20116;-73
2023/01/12 03:15:52;;;;;;;22.38;6.70;;;;;;;;;;5021215;28;20081;-73
2023/01/12 03:18:22;;;;;;;25.38;5.78;;;;;;;;;;5023955;28;20072;-73
2023/01/12 03:20:51;;;;;;;24.02;5.57;;;;;;;;;;5027981;28;20057;-73
2023/01/12 03:23:19;;;;;;;27.65;7.85;;;;;;;;;;5031294;28;20029;-73
2023/01/12 03:25:46;;;;;;;32.60;5.95;;;;;;;;;;5029875;28;20093;-73
2023/01/12 03:28:14;;;;;;;23.52;6.28;;;;;;;;;;5038641;28;21782;-73
2023/01/12 03:30:42;;;;;;;25.42;6.30;;;;;;;;;;5028179;28;20048;-73
2023/01/12 03:33:09;;;;;;;28.95;6.15;;;;;;;;;;5015503;28;20050;-73
2023/01/12 03:35:39;;;;;;;25.75;5.78;;;;;;;;;;5022343;28;20045;-73
2023/01/12 03:38:09;;;;;;;28.42;6.32;;;;;;;;;;5021564;28;20057;-73
2023/01/12 03:40:37;;;;;;;26.70;6.55;;;;;;;;;;5023820;28;20492;-73
2023/01/12 03:43:12;;;;;;;25.02;5.28;;;;;;;;;;5022684;28;20448;-73
2023/01/12 03:45:38;;;;;;;25.17;5.10;;;;;;;;;;5053017;28;20405;-73
2023/01/12 03:48:04;;;;;;;18.77;4.47;;;;;;;;;;5027362;28;20046;-73
2023/01/12 03:50:34;;;;;;;19.50;5.00;;;;;;;;;;5023272;28;20053;-73
2023/01/12 03:53:01;;;;;;;13.75;4.30;;;;;;;;;;5024973;28;20075;-73
2023/01/12 03:55:29;;;;;;;16.80;4.47;;;;;;;;;;5015908;28;20064;-73
2023/01/12 03:57:55;;;;;;;16.70;3.88;;;;;;;;;;5015148;28;20049;-73
2023/01/12 04:00:22;;;;;;;20.85;4.00;;;;;;;;;;5024101;28;20029;-73
2023/01/12 04:02:48;;;;;;;17.15;3.72;;;;;;;;;;5020617;28;20173;-73
2023/01/12 04:05:15;;;;;;;17.15;4.20;;;;;;;;;;5018176;28;20065;-73
2023/01/12 04:07:41;;;;;;;17.40;4.22;;;;;;;;;;5014241;28;20099;-74
2023/01/12 04:10:07;;;;;;;14.25;4.03;;;;;;;;;;5024118;28;20050;-73
2023/01/12 04:12:33;;;;;;;19.02;3.58;;;;;;;;;;5014929;28;20037;-73
2023/01/12 04:14:59;;;;;;;14.23;3.63;;;;;;;;;;5010754;28;20041;-73
2023/01/12 04:17:26;;;;;;;13.73;3.53;;;;;;;;;;5013121;28;20053;-73
2023/01/12 04:19:52;;;;;;;15.43;4.22;;;;;;;;;;5016657;28;20040;-73
2023/01/12 04:25:04;;;;;;;13.02;3.63;;;;;;;;;;5018043;28;20049;-73
2023/01/12 04:27:30;;;;;;;11.60;3.03;;;;;;;;;;5014311;28;20516;-73
2023/01/12 04:29:56;;;;;;;9.77;3.05;;;;;;;;;;5017850;28;21580;-73
2023/01/12 04:32:22;;;;;;;16.30;4.07;;;;;;;;;;5021539;28;20101;-74
2023/01/12 04:34:48;;;;;;;15.85;3.60;;;;;;;;;;5014554;28;20042;-73
2023/01/12 04:37:14;;;;;;;15.73;3.67;;;;;;;;;;5023536;28;20504;-74
2023/01/12 04:39:40;;;;;;;15.18;3.63;;;;;;;;;;5031859;28;20096;-73
2023/01/12 04:42:59;;;;;;;10.63;4.20;;;;;;;;;;5023583;28;20045;-74
2023/01/12 04:44:52;;;;;;;15.23;3.80;;;;;;;;;;5022097;28;20532;-73
2023/01/12 04:47:18;;;;;;;14.23;3.83;;;;;;;;;;5026480;28;20393;-73
2023/01/12 04:49:44;;;;;;;16.83;4.18;;;;;;;;;;5026466;28;20042;-73
2023/01/12 04:52:10;;;;;;;14.30;4.15;;;;;;;;;;5020923;28;20394;-74
2023/01/12 04:54:36;;;;;;;15.65;4.82;;;;;;;;;;5026926;28;20045;-74
2023/01/12 04:57:02;;;;;;;15.50;3.78;;;;;;;;;;5018026;28;20398;-74
2023/01/12 04:59:29;;;;;;;15.07;3.40;;;;;;;;;;5016812;28;20034;-73
2023/01/12 05:01:55;;;;;;;18.45;4.65;;;;;;;;;;5016313;28;20046;-74
2023/01/12 05:04:21;;;;;;;7.50;2.35;;;;;;;;;;5024582;28;20898;-74
2023/01/12 05:06:47;;;;;;;8.95;3.47;;;;;;;;;;5020789;28;20053;-74
2023/01/12 05:11:59;;;;;;;10.95;2.88;;;;;;;;;;5029276;28;20041;-73
2023/01/12 05:14:25;;;;;;;5.85;2.17;;;;;;;;;;5024452;28;20037;-74
2023/01/12 05:16:51;;;;;;;5.57;2.55;;;;;;;;;;5023045;28;20055;-74
2023/01/12 05:19:17;;;;;;;10.80;2.85;;;;;;;;;;5020510;28;20046;-74
2023/01/12 05:21:43;;;;;;;6.10;2.70;;;;;;;;;;5050604;28;20381;-74
2023/01/12 05:24:09;;;;;;;8.10;2.60;;;;;;;;;;5023989;28;20045;-74
2023/01/12 05:26:35;;;;;;;7.13;2.63;;;;;;;;;;5021386;28;20073;-74
2023/01/12 05:29:01;;;;;;;6.28;2.80;;;;;;;;;;5021453;28;20069;-74
2023/01/12 05:31:27;;;;;;;9.48;2.78;;;;;;;;;;5017351;28;20046;-74
2023/01/12 05:33:53;;;;;;;6.07;2.42;;;;;;;;;;5027113;28;20041;-74
2023/01/12 05:36:20;;;;;;;7.57;2.72;;;;;;;;;;5025364;28;20068;-74
2023/01/12 05:38:46;;;;;;;20.08;3.95;;;;;;;;;;5023064;28;20046;-75
2023/01/12 05:41:13;;;;;;;25.58;5.40;;;;;;;;;;5032676;28;20059;-74
2023/01/12 05:43:51;;;;;;;38.47;6.10;;;;;;;;;;5031657;28;20076;-74
2023/01/12 05:46:17;;;;;;;22.52;5.35;;;;;;;;;;5022018;28;20037;-74
2023/01/12 05:48:43;;;;;;;31.42;7.45;;;;;;;;;;5025988;28;20049;-75
2023/01/12 05:51:10;;;;;;;36.25;6.68;;;;;;;;;;5023096;28;20047;-74
2023/01/12 05:53:36;;;;;;;32.33;7.45;;;;;;;;;;5027322;28;20045;-75
2023/01/12 05:56:06;;;;;;;49.70;8.73;;;;;;;;;;5025093;28;20052;-75
2023/01/12 05:58:33;;;;;;;30.55;7.43;;;;;;;;;;5020648;28;20050;-75
2023/01/12 06:00:59;;;;;;;40.58;7.20;;;;;;;;;;5016144;28;20064;-75
2023/01/12 06:03:25;;;;;;;32.05;6.57;;;;;;;;;;5029518;28;20071;-75
2023/01/12 06:05:54;;;;;;;39.28;8.55;;;;;;;;;;5046605;28;20033;-75
2023/01/12 06:08:21;;;;;;;41.05;8.00;;;;;;;;;;5032386;28;20504;-75
2023/01/12 06:10:47;;;;;;;43.75;11.70;;;;;;;;;;5032944;28;20079;-75
2023/01/12 06:16:03;;;;;;;38.15;7.05;;;;;;;;;;5012377;28;20053;-74
2023/01/12 06:18:31;;;;;;;35.80;7.97;;;;;;;;;;5025737;28;20057;-74
2023/01/12 06:20:58;;;;;;;37.28;7.45;;;;;;;;;;5023192;28;20053;-74
2023/01/12 06:23:24;;;;;;;38.22;8.32;;;;;;;;;;5032538;28;20037;-74
2023/01/12 06:25:51;;;;;;;32.40;6.10;;;;;;;;;;5031614;28;20052;-74
2023/01/12 06:28:17;;;;;;;30.95;6.03;;;;;;;;;;5022901;28;20459;-74
2023/01/12 06:30:43;;;;;;;27.05;7.05;;;;;;;;;;5020376;28;20073;-74
2023/01/12 06:33:09;;;;;;;20.80;4.82;;;;;;;;;;5021574;28;20052;-74
2023/01/12 06:35:35;;;;;;;29.38;5.88;;;;;;;;;;5033124;28;20064;-74
2023/01/12 06:38:01;;;;;;;25.27;6.53;;;;;;;;;;5011674;28;20489;-74
2023/01/12 06:40:27;;;;;;;26.17;5.85;;;;;;;;;;5020865;28;20042;-74
2023/01/12 06:42:53;;;;;;;26.50;6.82;;;;;;;;;;5024634;28;20049;-74
2023/01/12 06:45:19;;;;;;;27.45;6.28;;;;;;;;;;5033182;28;20114;-74
2023/01/12 06:47:45;;;;;;;31.30;7.43;;;;;;;;;;5030666;28;20122;-74
2023/01/12 06:50:12;;;;;;;28.77;5.55;;;;;;;;;;5023264;28;20045;-74
2023/01/12 06:52:38;;;;;;;29.77;5.93;;;;;;;;;;5029429;28;20044;-75
2023/01/12 06:55:04;;;;;;;24.52;6.22;;;;;;;;;;5022564;28;20049;-74
2023/01/12 06:57:30;;;;;;;34.55;6.53;;;;;;;;;;5030456;28;20041;-74
2023/01/12 06:59:56;;;;;;;24.02;5.47;;;;;;;;;;5030646;28;20060;-74
2023/01/12 07:02:22;;;;;;;29.70;5.85;;;;;;;;;;5039268;28;20462;-74
2023/01/12 07:04:48;;;;;;;24.40;6.15;;;;;;;;;;5036711;28;20060;-73
2023/01/12 07:07:14;;;;;;;23.95;6.18;;;;;;;;;;5048806;28;20045;-74
2023/01/12 07:09:40;;;;;;;34.17;6.45;;;;;;;;;;5028308;28;20045;-74
2023/01/12 07:12:06;;;;;;;33.50;6.43;;;;;;;;;;5027870;28;20068;-74
2023/01/12 07:14:32;;;;;;;22.55;5.85;;;;;;;;;;5036392;28;20056;-74
2023/01/12 07:16:58;;;;;;;23.05;5.78;;;;;;;;;;5031922;28;20121;-73
2023/01/12 07:19:24;;;;;;;18.92;5.13;;;;;;;;;;5031150;28;20080;-74
2023/01/12 07:21:50;;;;;;;28.98;6.40;;;;;;;;;;5030968;28;20045;-74
2023/01/12 07:24:17;;;;;;;30.23;6.68;;;;;;;;;;5035977;28;20193;-74
2023/01/12 07:26:43;;;;;;;35.58;7.30;;;;;;;;;;5029049;28;20585;-74
2023/01/12 07:29:10;;;;;;;37.17;6.50;;;;;;;;;;5029622;28;20076;-74
2023/01/12 07:31:36;;;;;;;36.15;7.88;;;;;;;;;;5025876;28;20060;-74
2023/01/12 07:34:02;;;;;;;36.15;6.65;;;;;;;;;;5022592;28;20050;-74
2023/01/12 07:36:28;;;;;;;26.70;6.10;;;;;;;;;;5012620;28;20041;-74
2023/01/12 07:38:54;;;;;;;33.67;7.03;;;;;;;;;;5029164;28;20041;-75
2023/01/12 07:44:05;;;;;;;33.80;6.35;;;;;;;;;;5033053;28;20072;-75
2023/01/12 07:46:31;;;;;;;25.38;5.68;;;;;;;;;;5041670;28;20079;-74
2023/01/12 07:48:57;;;;;;;23.50;5.63;;;;;;;;;;5039919;28;20048;-75
2023/01/12 07:51:23;;;;;;;36.80;6.70;;;;;;;;;;5038024;28;20044;-75
2023/01/12 07:53:49;;;;;;;32.30;7.25;;;;;;;;;;5025369;28;20397;-75
2023/01/12 07:56:15;;;;;;;23.40;6.22;;;;;;;;;;5029660;28;20397;-75
2023/01/12 07:58:42;;;;;;;29.65;6.93;;;;;;;;;;5030429;28;20184;-74
2023/01/12 08:01:08;;;;;;;23.73;5.68;;;;;;;;;;5029459;28;20041;-75
2023/01/12 08:03:34;;;;;;;30.55;5.80;;;;;;;;;;5029609;28;20512;-74
2023/01/12 08:06:00;;;;;;;24.92;5.70;;;;;;;;;;5024092;28;20041;-75
2023/01/12 08:08:26;;;;;;;23.67;4.47;;;;;;;;;;5027908;28;20158;-74
2023/01/12 08:10:52;;;;;;;27.48;5.78;;;;;;;;;;5016705;28;20442;-74
2023/01/12 08:13:21;;;;;;;27.38;5.88;;;;;;;;;;5025748;28;20486;-75
2023/01/12 08:15:49;;;;;;;25.88;6.43;;;;;;;;;;5026296;28;20049;-75
2023/01/12 08:18:21;;;;;;;26.45;6.07;;;;;;;;;;5024213;28;20050;-74
2023/01/12 08:20:48;;;;;;;35.70;7.38;;;;;;;;;;5028076;28;20054;-75
2023/01/12 08:23:14;;;;;;;23.90;6.10;;;;;;;;;;5030384;28;20042;-75
2023/01/12 08:25:43;;;;;;;37.67;7.30;;;;;;;;;;5015384;28;20437;-74
2023/01/12 08:28:12;;;;;;;23.00;6.43;;;;;;;;;;5010349;28;20038;-74
2023/01/12 08:30:38;;;;;;;29.88;6.57;;;;;;;;;;5017633;28;20045;-75
2023/01/12 08:33:04;;;;;;;20.65;4.88;;;;;;;;;;5029662;28;20038;-74
2023/01/12 08:35:32;;;;;;;33.72;6.53;;;;;;;;;;5019553;28;20088;-74
2023/01/12 08:37:59;;;;;;;27.92;7.10;;;;;;;;;;5028068;28;20448;-74
2023/01/12 08:41:31;;;;;;;31.33;6.43;;;;;;;;;;5028625;28;20552;-74
2023/01/12 08:43:11;;;;;;;23.55;5.70;;;;;;;;;;5011739;28;20082;-74
2023/01/12 08:45:37;;;;;;;33.05;7.07;;;;;;;;;;5022976;28;20053;-74
2023/01/12 08:48:03;;;;;;;27.88;5.80;;;;;;;;;;5025757;28;20049;-74
2023/01/12 08:50:29;;;;;;;23.90;5.05;;;;;;;;;;5020358;28;20445;-74
2023/01/12 08:52:56;;;;;;;34.67;6.32;;;;;;;;;;5030094;28;20049;-74
2023/01/12 08:55:22;;;;;;;24.67;6.38;;;;;;;;;;5028903;28;20408;-74
2023/01/12 08:57:48;;;;;;;32.55;6.80;;;;;;;;;;5020002;28;20057;-74
2023/01/12 09:00:14;;;;;;;22.95;5.25;;;;;;;;;;5020838;28;20048;-74
2023/01/12 09:02:40;;;;;;;28.92;6.72;;;;;;;;;;5046998;28;20050;-74
2023/01/12 09:05:06;;;;;;;23.92;5.75;;;;;;;;;;5018166;28;20104;-74
2023/01/12 09:07:32;;;;;;;33.10;6.50;;;;;;;;;;5018786;28;20049;-74
2023/01/12 09:09:58;;;;;;;28.55;6.30;;;;;;;;;;5031844;28;20045;-75
2023/01/12 09:12:26;;;;;;;26.33;6.25;;;;;;;;;;5030806;28;20045;-75
2023/01/12 09:14:52;;;;;;;26.63;6.03;;;;;;;;;;5046072;28;20046;-74
2023/01/12 09:17:21;;;;;;;22.88;5.05;;;;;;;;;;5046011;28;20057;-74
2023/01/12 09:19:49;;;;;;;30.50;6.10;;;;;;;;;;5044774;28;20049;-75
2023/01/12 09:22:15;;;;;;;29.73;6.13;;;;;;;;;;5028088;28;20045;-75
2023/01/12 09:24:41;;;;;;;34.15;5.72;;;;;;;;;;5037590;28;20557;-74
2023/01/12 09:27:09;;;;;;;23.90;5.32;;;;;;;;;;5047247;28;20064;-74
2023/01/12 09:29:35;;;;;;;17.00;4.57;;;;;;;;;;5062177;28;20045;-73
2023/01/12 09:32:01;;;;;;;27.27;5.88;;;;;;;;;;5047964;28;20052;-73
2023/01/12 09:34:27;;;;;;;28.63;6.65;;;;;;;;;;5033022;28;20107;-73
2023/01/12 09:36:55;;;;;;;28.85;5.47;;;;;;;;;;5021703;28;20047;-74
2023/01/12 09:39:21;;;;;;;23.35;5.55;;;;;;;;;;5018643;28;20037;-74
2023/01/12 09:47:35;;;;;;;21.65;5.28;;;;;;;;;;5023376;28;20145;-75
2023/01/12 09:50:11;;;;;;;26.85;6.30;;;;;;;;;;5024185;28;20571;-74
2023/01/12 09:52:43;;;;;;;25.15;5.60;;;;;;;;;;5024415;28;20115;-74
2023/01/12 09:55:16;;;;;;;27.02;5.80;;;;;;;;;;5018567;28;20136;-73
2023/01/12 09:57:45;;;;;;;25.80;5.50;;;;;;;;;;5020692;28;20067;-74
2023/01/12 10:00:13;;;;;;;31.30;6.15;;;;;;;;;;5021740;28;20068;-74
2023/01/12 10:02:50;;;;;;;33.40;6.35;;;;;;;;;;5044451;28;20060;-74
2023/01/12 10:05:24;;;;;;;23.27;5.60;;;;;;;;;;5023499;28;20099;-74
2023/01/12 10:07:52;;;;;;;27.70;5.95;;;;;;;;;;5019893;28;20045;-74
2023/01/12 10:10:18;;;;;;;21.13;5.28;;;;;;;;;;5022589;28;20080;-74
2023/01/12 10:12:49;;;;;;;26.67;5.00;;;;;;;;;;5020994;28;20115;-74
2023/01/12 10:15:36;;;;;;;17.83;5.03;;;;;;;;;;5017620;28;20056;-74
2023/01/12 10:18:06;;;;;;;23.98;6.10;;;;;;;;;;5021764;28;20049;-74
2023/01/12 10:20:41;;;;;;;22.63;5.45;;;;;;;;;;5018997;28;20417;-74
2023/01/12 10:23:07;;;;;;;22.98;6.22;;;;;;;;;;5019963;28;20050;-74
2023/01/12 10:25:39;;;;;;;27.65;4.95;;;;;;;;;;5018993;28;20045;-73
2023/01/12 10:28:07;;;;;;;38.42;5.90;;;;;;;;;;5050094;28;20095;-74
2023/01/12 10:30:34;;;;;;;24.70;5.35;;;;;;;;;;5020352;28;20091;-74
2023/01/12 10:33:12;;;;;;;23.30;5.95;;;;;;;;;;5020174;28;20045;-74
2023/01/12 10:35:57;;;;;;;25.15;5.03;;;;;;;;;;5020792;28;20045;-74
2023/01/12 10:38:23;;;;;;;26.42;4.65;;;;;;;;;;5032334;28;20543;-74
2023/01/12 10:41:08;;;;;;;22.33;5.13;;;;;;;;;;5031783;28;20046;-74
2023/01/12 10:43:34;;;;;;;21.67;5.38;;;;;;;;;;5025050;28;20104;-74
2023/01/12 10:46:14;;;;;;;22.02;4.90;;;;;;;;;;5020654;28;20050;-73
2023/01/12 10:48:44;;;;;;;18.73;4.75;;;;;;;;;;5019749;28;20050;-74
2023/01/12 10:51:16;;;;;;;25.98;5.13;;;;;;;;;;5031281;28;20101;-74
2023/01/12 10:53:48;;;;;;;18.85;5.30;;;;;;;;;;5029126;28;20049;-74
2023/01/12 10:56:37;;;;;;;23.25;5.15;;;;;;;;;;5029767;28;20037;-74
2023/01/12 10:59:13;;;;;;;21.33;4.00;;;;;;;;;;5023398;28;20045;-74
2023/01/12 11:01:42;;;;;;;23.65;5.00;;;;;;;;;;5032200;28;20132;-74
2023/01/12 11:04:10;;;;;;;14.82;4.57;;;;;;;;;;5030146;28;20444;-74
2023/01/12 11:06:37;;;;;;;22.75;5.07;;;;;;;;;;5014590;28;20042;-74
2023/01/12 11:09:22;;;;;;;20.10;4.55;;;;;;;;;;5027332;28;20131;-74
2023/01/12 11:11:52;;;;;;;26.35;5.25;;;;;;;;;;5027018;28;20052;-74
2023/01/12 11:14:23;;;;;;;22.40;5.18;;;;;;;;;;5025608;28;20052;-74
2023/01/12 11:16:49;;;;;;;21.08;4.35;;;;;;;;;;5021225;28;20119;-74
2023/01/12 11:19:16;;;;;;;21.00;5.10;;;;;;;;;;5022956;28;20037;-75
2023/01/12 11:21:45;;;;;;;18.95;5.35;;;;;;;;;;5026119;28;20052;-74
2023/01/12 11:24:12;;;;;;;20.33;4.82;;;;;;;;;;5026902;28;20485;-73
2023/01/12 11:26:51;;;;;;;22.85;5.00;;;;;;;;;;5019796;28;20052;-75
2023/01/12 11:29:35;;;;;;;21.25;5.18;;;;;;;;;;5019740;28;20060;-74
2023/01/12 11:32:11;;;;;;;13.55;3.67;;;;;;;;;;5029546;28;20470;-74
2023/01/12 11:34:39;;;;;;;19.20;4.32;;;;;;;;;;5022663;28;20040;-74
2023/01/12 11:37:10;;;;;;;20.73;4.95;;;;;;;;;;5023768;28;20433;-74
2023/01/12 11:39:38;;;;;;;19.25;4.88;;;;;;;;;;5026817;28;20048;-74
2023/01/12 11:44:56;;;;;;;19.95;4.35;;;;;;;;;;5019185;28;20073;-74
2023/01/12 11:47:30;;;;;;;24.02;4.35;;;;;;;;;;4997101;28;20598;-74
2023/01/12 11:50:04;;;;;;;24.48;4.85;;;;;;;;;;5018105;28;20076;-74
2023/01/12 11:52:30;;;;;;;18.83;5.43;;;;;;;;;;5019899;28;20041;-74
2023/01/12 11:54:56;;;;;;;23.02;5.28;;;;;;;;;;5051810;28;20045;-74
2023/01/12 11:57:31;;;;;;;28.15;5.47;;;;;;;;;;5019964;28;20041;-74
2023/01/12 12:00:12;;;;;;;20.25;4.20;;;;;;;;;;5022375;28;20029;-74
2023/01/12 12:02:41;;;;;;;20.00;5.03;;;;;;;;;;5014433;28;20041;-74
2023/01/12 12:05:25;;;;;;;25.42;5.70;;;;;;;;;;5021292;28;20037;-74
2023/01/12 12:07:54;;;;;;;17.88;4.63;;;;;;;;;;5021710;28;20042;-74
2023/01/12 12:10:50;;;;;;;22.77;5.32;;;;;;;;;;5024760;28;20436;-74
2023/01/12 12:13:28;;;;;;;17.05;5.22;;;;;;;;;;5012836;28;20188;-74
2023/01/12 12:16:09;;;;;;;19.55;5.15;;;;;;;;;;5020627;28;20073;-74
2023/01/12 12:18:45;;;;;;;26.75;6.72;;;;;;;;;;5055249;28;20060;-74
2023/01/12 12:21:29;;;;;;;21.00;5.70;;;;;;;;;;5027192;28;20454;-74
2023/01/12 12:23:55;;;;;;;23.60;5.22;;;;;;;;;;5027430;28;20543;-75
2023/01/12 12:26:30;;;;;;;26.30;5.35;;;;;;;;;;5021970;28;20037;-74
2023/01/12 12:29:21;;;;;;;21.60;6.15;;;;;;;;;;5009847;28;20108;-75
2023/01/12 12:31:50;;;;;;;27.38;5.10;;;;;;;;;;5018736;28;20046;-74
2023/01/12 12:34:16;;;;;;;26.83;6.15;;;;;;;;;;5022525;28;20088;-75
2023/01/12 12:36:50;;;;;;;23.13;5.13;;;;;;;;;;5029894;28;20069;-74
2023/01/12 12:39:28;;;;;;;23.35;5.93;;;;;;;;;;5027927;28;20449;-75
2023/01/12 12:45:16;;;;;;;20.70;5.97;;;;;;;;;;5026424;28;20481;-74
2023/01/12 12:47:49;;;;;;;23.92;6.18;;;;;;;;;;5025506;28;20485;-74
2023/01/12 12:50:34;;;;;;;27.65;5.32;;;;;;;;;;5054805;28;20049;-74
2023/01/12 12:53:05;;;;;;;20.00;5.43;;;;;;;;;;5028746;28;20045;-74
2023/01/12 12:55:31;;;;;;;24.67;5.35;;;;;;;;;;5021146;28;20085;-75
2023/01/12 12:57:58;;;;;;;22.38;4.60;;;;;;;;;;5008098;28;20046;-74
2023/01/12 13:00:45;;;;;;;19.15;4.47;;;;;;;;;;5028060;28;20050;-75
2023/01/12 13:03:31;;;;;;;17.73;5.60;;;;;;;;;;5029341;28;20049;-75
2023/01/12 13:06:09;;;;;;;25.10;5.05;;;;;;;;;;5023733;28;20045;-75
2023/01/12 13:08:41;;;;;;;19.70;4.68;;;;;;;;;;5024746;28;20092;-75
2023/01/12 13:11:08;;;;;;;27.47;6.10;;;;;;;;;;5045491;28;20477;-74
2023/01/12 13:13:36;;;;;;;23.85;5.75;;;;;;;;;;5014328;28;20320;-74
2023/01/12 13:16:11;;;;;;;28.25;5.32;;;;;;;;;;5028269;28;20396;-75
2023/01/12 13:19:03;;;;;;;30.33;6.13;;;;;;;;;;5024179;28;20501;-74
2023/01/12 13:21:30;;;;;;;30.38;5.82;;;;;;;;;;5028178;28;20129;-74
2023/01/12 13:24:08;;;;;;;26.65;5.85;;;;;;;;;;5019233;28;20992;-74
2023/01/12 13:26:34;;;;;;;27.08;5.78;;;;;;;;;;5023204;28;20580;-74
2023/01/12 13:29:25;;;;;;;22.77;6.20;;;;;;;;;;5022209;28;20053;-74
2023/01/12 13:32:10;;;;;;;18.85;5.18;;;;;;;;;;5022134;28;20053;-74
2023/01/12 13:34:36;;;;;;;27.30;5.47;;;;;;;;;;5027752;28;20069;-74
2023/01/12 13:37:15;;;;;;;22.20;5.68;;;;;;;;;;5028102;28;20460;-74
2023/01/12 13:39:45;;;;;;;24.20;5.55;;;;;;;;;;5020660;28;20409;-74
2023/01/12 13:45:02;;;;;;;26.85;5.63;;;;;;;;;;5028596;28;20434;-74
2023/01/12 13:47:31;;;;;;;20.38;4.95;;;;;;;;;;5026193;28;20049;-73
2023/01/12 13:49:59;;;;;;;23.42;4.95;;;;;;;;;;5030089;28;20077;-74
2023/01/12 13:52:30;;;;;;;15.80;4.32;;;;;;;;;;5027605;28;20044;-74
2023/01/12 13:54:56;;;;;;;15.10;4.40;;;;;;;;;;5018458;28;20052;-74
2023/01/12 13:57:24;;;;;;;20.83;5.25;;;;;;;;;;5017927;28;20069;-74
2023/01/12 13:59:57;;;;;;;19.00;4.53;;;;;;;;;;5021414;28;20588;-74
2023/01/12 14:02:23;;;;;;;23.75;4.90;;;;;;;;;;5026838;28;20045;-74
2023/01/12 14:04:53;;;;;;;28.27;5.25;;;;;;;;;;5022978;28;20045;-75
2023/01/12 14:07:31;;;;;;;21.75;5.13;;;;;;;;;;5015857;28;20049;-74
2023/01/12 14:09:57;;;;;;;19.13;4.75;;;;;;;;;;5020763;28;20489;-75
2023/01/12 14:12:41;;;;;;;21.40;4.80;;;;;;;;;;5031388;28;20107;-74
2023/01/12 14:18:03;;;;;;;19.45;5.18;;;;;;;;;;5060897;28;22253;-74
2023/01/12 14:20:30;;;;;;;18.55;4.60;;;;;;;;;;5025666;28;20444;-74
2023/01/12 14:23:13;;;;;;;22.05;5.18;;;;;;;;;;5029225;28;20081;-75
2023/01/12 14:25:39;;;;;;;24.98;5.30;;;;;;;;;;5029525;28;20400;-74
2023/01/12 14:28:05;;;;;;;24.17;5.25;;;;;;;;;;5016001;28;20050;-74
2023/01/12 14:30:35;;;;;;;20.85;4.93;;;;;;;;;;5017206;28;20053;-74
2023/01/12 14:33:01;;;;;;;25.80;5.35;;;;;;;;;;5027157;28;20408;-74
2023/01/12 14:35:27;;;;;;;19.63;4.82;;;;;;;;;;5029507;28;20560;-75
2023/01/12 14:38:00;;;;;;;26.63;6.00;;;;;;;;;;5008136;28;20045;-74
2023/01/12 14:40:33;;;;;;;19.00;5.10;;;;;;;;;;5029828;28;20516;-75
2023/01/12 14:48:53;;;;;;;30.45;5.80;;;;;;;;;;5031331;28;20088;-75
2023/01/12 14:51:40;;;;;;;31.75;6.65;;;;;;;;;;5026601;28;20045;-74
2023/01/12 14:54:06;;;;;;;28.35;6.20;;;;;;;;;;5030393;28;20041;-74
2023/01/12 14:56:40;;;;;;;31.13;6.47;;;;;;;;;;5028431;28;20065;-73
2023/01/12 14:59:08;;;;;;;30.33;6.05;;;;;;;;;;5030117;28;20124;-74
2023/01/12 15:01:38;;;;;;;26.10;6.72;;;;;;;;;;5028657;28;20045;-73
2023/01/12 15:04:05;;;;;;;28.67;6.50;;;;;;;;;;5047247;28;20129;-73
2023/01/12 15:06:33;;;;;;;27.45;6.43;;;;;;;;;;5023082;28;20465;-74
2023/01/12 15:08:59;;;;;;;29.85;6.35;;;;;;;;;;5030361;28;20075;-74
2023/01/12 15:11:34;;;;;;;33.75;7.32;;;;;;;;;;5028055;28;20497;-73
2023/01/12 15:14:00;;;;;;;33.67;7.68;;;;;;;;;;5030678;28;20059;-73
2023/01/12 15:27:26;;;;;;;25.63;6.03;;;;;;;;;;5031531;28;20052;-73
2023/01/12 15:29:54;;;;;;;25.85;6.05;;;;;;;;;;5029470;28;20532;-73
2023/01/12 15:32:22;;;;;;;31.90;6.22;;;;;;;;;;5029442;28;20489;-74
2023/01/12 15:34:48;;;;;;;25.35;5.65;;;;;;;;;;5029352;28;20072;-74
2023/01/12 15:37:16;;;;;;;22.20;5.47;;;;;;;;;;5030681;28;20103;-74
2023/01/12 15:39:42;;;;;;;25.25;5.20;;;;;;;;;;5025822;28;20037;-74